Time;durP1;ratioP1;P1;durP2;ratioP2;P2;SDS_P1;SDS_P2;PMS_P1;PMS_P2;Temp;Humidity;BMP_temperature;BMP_pressure;BME280_temperature;BME280_humidity;BME280_pressure;Samples;Min_cycle;Max_cycle;Signal;HPM_P1;HPM_P2
2022/04/19 00:01:00;;;;;;;4.63;1.88;;;7.60;72.40;;;;;;5009451;28;20120;-77
2022/04/19 00:03:26;;;;;;;3.50;1.90;;;7.60;73.50;;;;;;5009768;28;20022;-78
2022/04/19 00:05:52;;;;;;;5.00;1.92;;;7.60;72.40;;;;;;5006678;28;20401;-78
2022/04/19 00:08:17;;;;;;;2.65;1.85;;;7.60;72.40;;;;;;5008043;28;20022;-78
2022/04/19 00:10:43;;;;;;;2.28;1.70;;;7.50;73.60;;;;;;5009933;28;20092;-78
2022/04/19 00:13:10;;;;;;;3.28;1.95;;;7.50;73.80;;;;;;5009476;28;20038;-78
2022/04/19 00:15:38;;;;;;;4.07;1.83;;;7.50;74.00;;;;;;5009657;28;20037;-78
2022/04/19 00:18:05;;;;;;;2.35;1.83;;;7.40;74.00;;;;;;5009670;28;20511;-78
2022/04/19 00:20:33;;;;;;;5.22;1.98;;;7.40;74.70;;;;;;5010081;28;20045;-78
2022/04/19 00:22:58;;;;;;;4.10;1.42;;;7.40;76.30;;;;;;5012440;28;20030;-78
2022/04/19 00:25:24;;;;;;;3.00;1.65;;;7.40;75.00;;;;;;5004333;28;20073;-77
2022/04/19 00:27:50;;;;;;;3.78;1.55;;;7.40;75.10;;;;;;5009588;28;20026;-78
2022/04/19 00:30:16;;;;;;;4.68;1.80;;;7.40;75.40;;;;;;5009420;28;20068;-77
2022/04/19 00:32:41;;;;;;;3.15;1.83;;;7.50;74.90;;;;;;5009625;28;20069;-78
2022/04/19 00:35:09;;;;;;;2.75;1.95;;;7.50;74.80;;;;;;5009052;28;20030;-78
2022/04/19 00:37:36;;;;;;;4.60;1.73;;;7.50;74.80;;;;;;5008641;28;20112;-78
2022/04/19 00:40:03;;;;;;;2.95;1.70;;;7.40;75.50;;;;;;5009288;28;20036;-78
2022/04/19 00:42:29;;;;;;;4.63;1.98;;;7.50;75.90;;;;;;5008863;28;20022;-78
2022/04/19 00:44:56;;;;;;;2.58;1.67;;;7.50;76.30;;;;;;5009757;28;20250;-78
2022/04/19 00:47:21;;;;;;;2.08;1.70;;;7.50;76.00;;;;;;5016378;28;20381;-78
2022/04/19 00:49:47;;;;;;;3.42;1.90;;;7.60;75.90;;;;;;5009157;28;20034;-78
2022/04/19 00:52:13;;;;;;;2.72;1.80;;;7.50;76.60;;;;;;5012283;28;20029;-78
2022/04/19 00:54:40;;;;;;;3.40;1.70;;;7.50;77.30;;;;;;5018946;28;20043;-78
2022/04/19 00:57:05;;;;;;;3.00;1.70;;;7.40;77.60;;;;;;5008865;28;20037;-78
2022/04/19 00:59:33;;;;;;;4.43;1.88;;;7.30;77.70;;;;;;5008765;28;20531;-78
2022/04/19 01:01:59;;;;;;;3.97;2.00;;;7.30;78.00;;;;;;5007943;28;20034;-78
2022/04/19 01:04:24;;;;;;;2.97;1.70;;;7.30;78.60;;;;;;5009522;28;20412;-78
2022/04/19 01:06:50;;;;;;;5.65;1.88;;;7.30;78.70;;;;;;5008423;28;20064;-78
2022/04/19 01:09:15;;;;;;;3.83;1.98;;;7.30;79.30;;;;;;5008729;28;20531;-78
2022/04/19 01:14:27;;;;;;;5.05;2.40;;;7.20;80.10;;;;;;5012981;28;20059;-78
2022/04/19 01:16:53;;;;;;;3.13;2.10;;;7.10;80.40;;;;;;5002472;28;20069;-78
2022/04/19 01:19:18;;;;;;;7.88;1.92;;;7.10;81.00;;;;;;5008322;28;20518;-78
2022/04/19 01:21:51;;;;;;;3.75;2.05;;;7.00;81.30;;;;;;5008577;28;20117;-78
2022/04/19 01:24:18;;;;;;;2.85;1.70;;;7.00;82.10;;;;;;5013258;28;20469;-78
2022/04/19 01:26:44;;;;;;;3.45;2.05;;;6.90;82.40;;;;;;5008813;28;20105;-78
2022/04/19 01:29:10;;;;;;;3.45;2.00;;;6.90;82.70;;;;;;5008292;28;20069;-78
2022/04/19 01:31:37;;;;;;;2.67;1.95;;;6.90;83.50;;;;;;5008934;28;20100;-78
2022/04/19 01:34:03;;;;;;;2.92;2.00;;;6.70;84.90;;;;;;5016404;28;20109;-78
2022/04/19 01:36:29;;;;;;;6.68;1.80;;;6.60;85.30;;;;;;5008108;28;20240;-78
2022/04/19 01:38:54;;;;;;;2.88;2.15;;;6.70;85.40;;;;;;5008837;28;20025;-78
2022/04/19 01:41:20;;;;;;;3.03;2.20;;;6.70;85.40;;;;;;5008103;28;20030;-78
2022/04/19 01:43:45;;;;;;;3.67;1.90;;;6.70;86.40;;;;;;5007732;28;20026;-78
2022/04/19 01:46:11;;;;;;;4.25;2.08;;;6.80;85.80;;;;;;5008268;28;20500;-79
2022/04/19 01:48:36;;;;;;;3.20;1.77;;;6.80;84.90;;;;;;5007763;28;20017;-79
2022/04/19 01:51:02;;;;;;;7.30;2.08;;;6.70;85.00;;;;;;5008186;28;20033;-79
2022/04/19 01:53:28;;;;;;;3.30;2.25;;;6.80;85.30;;;;;;5007819;28;20022;-78
2022/04/19 01:55:54;;;;;;;3.38;2.13;;;6.70;85.20;;;;;;5009296;28;20034;-79
2022/04/19 01:58:20;;;;;;;3.20;2.17;;;6.70;85.20;;;;;;5008343;28;20049;-78
2022/04/19 02:00:45;;;;;;;3.60;2.40;;;6.70;85.30;;;;;;5008374;28;20042;-79
2022/04/19 02:03:11;;;;;;;3.70;2.33;;;6.70;86.40;;;;;;5007878;28;20030;-79
2022/04/19 02:05:36;;;;;;;2.95;2.25;;;6.70;85.90;;;;;;5006190;28;20030;-79
2022/04/19 02:08:02;;;;;;;3.40;2.28;;;6.60;87.10;;;;;;5008206;28;20037;-79
2022/04/19 02:10:27;;;;;;;6.20;2.28;;;6.70;85.90;;;;;;5007570;28;20046;-78
2022/04/19 02:12:53;;;;;;;4.93;2.10;;;6.70;85.80;;;;;;5007445;28;20029;-78
2022/04/19 02:15:18;;;;;;;3.08;2.28;;;6.70;85.70;;;;;;5007032;28;20088;-78
2022/04/19 02:17:45;;;;;;;3.22;2.35;;;6.70;85.80;;;;;;5007752;28;20546;-78
2022/04/19 02:20:13;;;;;;;5.45;2.60;;;6.60;87.10;;;;;;5007476;28;20081;-77
2022/04/19 02:22:39;;;;;;;4.90;2.55;;;6.60;87.20;;;;;;5012952;28;20037;-78
2022/04/19 02:25:06;;;;;;;4.47;2.53;;;6.60;87.10;;;;;;5008263;28;20034;-78
2022/04/19 02:27:33;;;;;;;3.65;2.25;;;6.60;86.10;;;;;;5010005;28;20029;-78
2022/04/19 02:30:04;;;;;;;4.20;2.70;;;6.40;87.20;;;;;;5006016;28;20026;-78
2022/04/19 02:32:30;;;;;;;6.00;2.30;;;6.50;86.70;;;;;;5009956;28;20030;-77
2022/04/19 02:34:57;;;;;;;4.10;2.50;;;6.50;86.90;;;;;;5011662;28;20030;-78
2022/04/19 02:37:22;;;;;;;3.85;2.45;;;6.50;86.70;;;;;;5011247;28;20404;-78
2022/04/19 02:39:49;;;;;;;4.15;2.58;;;6.50;87.60;;;;;;5001995;28;20042;-78
2022/04/19 02:42:15;;;;;;;3.17;2.42;;;6.40;88.30;;;;;;5010181;28;20029;-78
2022/04/19 02:44:40;;;;;;;4.15;2.45;;;6.40;88.00;;;;;;5006066;28;20022;-78
2022/04/19 02:47:06;;;;;;;5.90;2.47;;;6.40;87.50;;;;;;5010570;28;20032;-78
2022/04/19 02:49:34;;;;;;;3.63;2.42;;;6.40;87.90;;;;;;5011341;28;20501;-78
2022/04/19 02:52:00;;;;;;;3.22;2.20;;;6.30;88.50;;;;;;5011036;28;20084;-79
2022/04/19 02:54:25;;;;;;;4.82;1.88;;;6.20;89.70;;;;;;5011523;28;20449;-78
2022/04/19 02:56:51;;;;;;;4.30;2.50;;;6.20;88.40;;;;;;5008016;28;20366;-78
2022/04/19 02:59:17;;;;;;;3.13;2.10;;;6.20;88.80;;;;;;5008748;28;20038;-78
2022/04/19 03:01:43;;;;;;;5.15;2.30;;;6.20;90.00;;;;;;5010997;28;20021;-78
2022/04/19 03:04:09;;;;;;;3.42;2.03;;;6.20;89.10;;;;;;5012921;28;20034;-78
2022/04/19 03:06:34;;;;;;;3.78;2.30;;;6.20;89.70;;;;;;5013973;28;20087;-78
2022/04/19 03:09:00;;;;;;;6.32;2.22;;;6.10;89.90;;;;;;5012756;28;20014;-78
2022/04/19 03:11:26;;;;;;;5.68;2.40;;;6.10;89.30;;;;;;5010682;28;20034;-78
2022/04/19 03:13:51;;;;;;;2.58;2.03;;;6.10;90.10;;;;;;5009852;28;20045;-77
2022/04/19 03:16:17;;;;;;;6.63;2.45;;;5.90;90.60;;;;;;5010758;28;20033;-76
2022/04/19 03:18:43;;;;;;;6.47;2.60;;;5.80;90.60;;;;;;5009290;28;20021;-75
2022/04/19 03:21:10;;;;;;;3.35;2.30;;;5.80;91.30;;;;;;5011322;28;20057;-76
2022/04/19 03:29:06;;;;;;;3.60;2.38;;;5.70;91.00;;;;;;5009149;28;20110;-77
2022/04/19 03:31:32;;;;;;;3.65;2.45;;;5.80;90.90;;;;;;5010163;28;20108;-77
2022/04/19 03:33:57;;;;;;;2.58;2.22;;;5.80;90.70;;;;;;5003002;28;20030;-77
2022/04/19 03:36:23;;;;;;;4.75;2.50;;;5.80;90.70;;;;;;5010054;28;20017;-77
2022/04/19 03:38:48;;;;;;;3.35;2.22;;;5.70;90.90;;;;;;5006798;28;20116;-78
2022/04/19 03:41:14;;;;;;;5.38;2.42;;;5.60;91.30;;;;;;5008739;28;20780;-78
2022/04/19 03:43:41;;;;;;;4.28;2.25;;;5.60;91.00;;;;;;5027991;28;20030;-77
2022/04/19 03:46:06;;;;;;;6.15;2.50;;;5.50;92.10;;;;;;5014147;28;20072;-79
2022/04/19 03:48:32;;;;;;;4.18;2.45;;;5.50;92.10;;;;;;5009997;28;20645;-77
2022/04/19 03:50:58;;;;;;;5.75;2.47;;;5.50;92.30;;;;;;5007881;28;20030;-77
2022/04/19 03:53:23;;;;;;;4.32;2.58;;;5.50;92.30;;;;;;5009251;28;20041;-77
2022/04/19 03:55:49;;;;;;;2.97;2.40;;;5.30;92.80;;;;;;5008313;28;20125;-77
2022/04/19 03:58:14;;;;;;;2.25;2.05;;;5.30;92.80;;;;;;5009912;28;20038;-78
2022/04/19 04:00:40;;;;;;;4.38;2.55;;;5.40;92.70;;;;;;5004386;28;20081;-81
2022/04/19 04:03:06;;;;;;;7.50;2.55;;;5.30;92.90;;;;;;5008072;28;20393;-80
2022/04/19 04:05:32;;;;;;;5.93;2.50;;;5.30;93.40;;;;;;5009846;28;20256;-77
2022/04/19 04:07:58;;;;;;;5.55;2.40;;;5.20;92.90;;;;;;5010108;28;20022;-81
2022/04/19 04:10:24;;;;;;;4.60;2.35;;;5.30;92.80;;;;;;5012272;28;20092;-75
2022/04/19 04:12:50;;;;;;;4.80;2.08;;;5.30;92.60;;;;;;5004949;28;20591;-82
2022/04/19 04:15:15;;;;;;;5.68;2.58;;;5.30;94.00;;;;;;5002100;28;20280;-82
2022/04/19 04:17:41;;;;;;;4.38;2.55;;;5.30;93.70;;;;;;5004043;28;20033;-82
2022/04/19 04:20:07;;;;;;;4.28;2.50;;;5.40;93.20;;;;;;5007175;28;20042;-82
2022/04/19 04:22:33;;;;;;;3.25;2.30;;;5.50;92.50;;;;;;5006220;28;20741;-82
2022/04/19 04:24:58;;;;;;;6.85;2.42;;;5.50;92.70;;;;;;5008691;28;20026;-81
2022/04/19 04:27:24;;;;;;;4.80;2.65;;;5.50;92.50;;;;;;5006981;28;20062;-83
2022/04/19 04:29:50;;;;;;;4.03;2.50;;;5.40;92.90;;;;;;5008410;28;20033;-83
2022/04/19 04:32:16;;;;;;;6.97;2.25;;;5.50;93.10;;;;;;5006759;28;20428;-82
2022/04/19 04:34:42;;;;;;;6.68;2.85;;;5.50;93.10;;;;;;5005056;28;20034;-82
2022/04/19 04:37:07;;;;;;;5.07;2.40;;;5.40;93.70;;;;;;5007700;28;20026;-83
2022/04/19 04:39:32;;;;;;;5.45;2.63;;;5.40;94.00;;;;;;5005738;28;20489;-82
2022/04/19 04:41:58;;;;;;;5.80;2.53;;;5.40;94.00;;;;;;5007852;28;20484;-83
2022/04/19 04:44:23;;;;;;;4.57;2.30;;;5.50;94.20;;;;;;5008161;28;20384;-82
2022/04/19 04:49:36;;;;;;;8.20;2.47;;;5.30;95.30;;;;;;5006508;28;21347;-83
2022/04/19 04:52:13;;;;;;;8.77;2.92;;;5.40;95.10;;;;;;5005747;28;20103;-82
2022/04/19 04:54:39;;;;;;;7.28;2.63;;;5.60;95.10;;;;;;5006360;28;20038;-82
2022/04/19 04:57:06;;;;;;;8.50;2.40;;;5.60;94.50;;;;;;5007475;28;20037;-81
2022/04/19 04:59:32;;;;;;;6.38;2.80;;;5.60;94.60;;;;;;5006850;28;20028;-82
2022/04/19 05:01:59;;;;;;;4.68;2.58;;;5.60;94.80;;;;;;5007698;28;21282;-83
2022/04/19 05:04:25;;;;;;;9.10;2.80;;;5.60;95.40;;;;;;5007300;28;20022;-83
2022/04/19 05:06:50;;;;;;;6.38;2.67;;;5.50;95.60;;;;;;5005745;28;20575;-83
2022/04/19 05:09:16;;;;;;;9.23;2.90;;;5.70;95.80;;;;;;5008287;28;20046;-83
2022/04/19 05:11:42;;;;;;;3.85;2.45;;;5.80;95.40;;;;;;5007337;28;20034;-82
2022/04/19 05:14:08;;;;;;;5.13;2.50;;;5.70;95.90;;;;;;5006812;28;20066;-83
2022/04/19 05:16:36;;;;;;;6.88;2.75;;;5.80;96.30;;;;;;5007369;28;20018;-83
2022/04/19 05:19:03;;;;;;;5.65;2.38;;;5.90;96.10;;;;;;5007268;28;20022;-83
2022/04/19 05:21:29;;;;;;;7.93;2.97;;;5.90;96.00;;;;;;5007454;28;20026;-83
2022/04/19 05:23:55;;;;;;;4.00;2.80;;;5.90;96.00;;;;;;5007742;28;20124;-83
2022/04/19 05:26:21;;;;;;;6.93;3.28;;;5.90;96.80;;;;;;5008731;28;20545;-82
2022/04/19 05:28:46;;;;;;;7.18;3.30;;;6.00;96.30;;;;;;5005921;28;20588;-83
2022/04/19 05:31:12;;;;;;;5.22;3.03;;;6.00;96.20;;;;;;5007190;28;20148;-83
2022/04/19 05:33:37;;;;;;;6.97;3.40;;;6.10;96.30;;;;;;5009575;28;20439;-81
2022/04/19 05:36:03;;;;;;;6.30;3.30;;;6.20;96.10;;;;;;5007764;28;20026;-83
2022/04/19 05:38:28;;;;;;;5.50;2.90;;;6.10;96.00;;;;;;5002359;28;20149;-82
2022/04/19 05:40:54;;;;;;;5.88;3.35;;;6.20;95.60;;;;;;5003012;28;20137;-86
2022/04/19 05:43:19;;;;;;;8.35;3.60;;;6.30;95.80;;;;;;4999976;28;20079;-89
2022/04/19 05:45:46;;;;;;;6.53;3.22;;;6.30;95.50;;;;;;5001073;28;20034;-86
2022/04/19 05:48:12;;;;;;;6.38;3.28;;;6.20;95.20;;;;;;5001571;28;20049;-81
2022/04/19 05:50:38;;;;;;;9.48;3.28;;;6.20;96.00;;;;;;4997133;28;20100;-82
2022/04/19 05:53:03;;;;;;;9.35;3.40;;;6.30;95.30;;;;;;4997860;28;20442;-79
2022/04/19 05:55:29;;;;;;;9.07;3.30;;;6.50;95.00;;;;;;4996537;28;20035;-78
2022/04/19 05:57:54;;;;;;;6.68;3.60;;;6.50;94.40;;;;;;4998285;28;20141;-80
2022/04/19 06:00:20;;;;;;;8.15;3.78;;;6.60;94.30;;;;;;4995899;28;20061;-78
2022/04/19 06:05:29;;;;;;;9.85;3.83;;;6.50;93.90;;;;;;4996312;28;20095;-76
2022/04/19 06:07:55;;;;;;;6.88;3.50;;;6.50;94.10;;;;;;5006005;28;20061;-76
2022/04/19 06:10:22;;;;;;;7.63;3.30;;;6.60;94.00;;;;;;5005575;28;20096;-79
2022/04/19 06:12:47;;;;;;;5.07;3.15;;;6.70;94.00;;;;;;5004711;28;20041;-77
2022/04/19 06:15:13;;;;;;;5.22;3.55;;;6.80;94.10;;;;;;5003682;28;20034;-77
2022/04/19 06:17:40;;;;;;;11.38;3.53;;;6.80;93.80;;;;;;5000538;28;20042;-76
2022/04/19 06:20:07;;;;;;;5.45;3.58;;;7.00;93.70;;;;;;5005129;28;20038;-76
2022/04/19 06:22:33;;;;;;;6.22;3.58;;;7.10;92.10;;;;;;5004387;28;20034;-78
2022/04/19 06:24:59;;;;;;;6.20;3.35;;;7.20;92.10;;;;;;5000600;28;20026;-79
2022/04/19 06:27:25;;;;;;;9.05;3.55;;;7.20;91.60;;;;;;5002027;28;20030;-76
2022/04/19 06:29:57;;;;;;;4.55;3.10;;;7.30;90.50;;;;;;4998888;28;20029;-76
2022/04/19 06:32:22;;;;;;;8.02;3.67;;;7.20;90.60;;;;;;5004280;28;20037;-76
2022/04/19 06:34:48;;;;;;;8.07;3.80;;;7.30;91.30;;;;;;5005246;28;20037;-75
2022/04/19 06:37:14;;;;;;;7.43;3.70;;;7.40;91.10;;;;;;5002359;28;20029;-76
2022/04/19 06:39:41;;;;;;;7.78;3.78;;;7.40;90.70;;;;;;4999819;28;20555;-76
2022/04/19 06:42:06;;;;;;;5.80;3.55;;;7.40;90.40;;;;;;5001206;28;20076;-77
2022/04/19 06:44:32;;;;;;;12.95;3.78;;;7.40;90.50;;;;;;5004887;28;20025;-75
2022/04/19 06:46:58;;;;;;;6.90;3.80;;;7.50;90.30;;;;;;5000774;28;20100;-76
2022/04/19 06:49:23;;;;;;;7.72;3.45;;;7.60;90.00;;;;;;4998048;28;20436;-76
2022/04/19 06:51:49;;;;;;;5.75;3.53;;;7.70;90.10;;;;;;5002461;28;20033;-75
2022/04/19 06:54:15;;;;;;;8.10;4.18;;;7.70;87.40;;;;;;5004413;28;20389;-75
2022/04/19 06:56:41;;;;;;;6.45;3.75;;;7.80;85.90;;;;;;5002103;28;20022;-76
2022/04/19 06:59:08;;;;;;;6.75;3.85;;;7.90;86.40;;;;;;5001321;28;20542;-77
2022/04/19 07:01:34;;;;;;;5.55;3.72;;;7.90;86.40;;;;;;5001663;28;20021;-76
2022/04/19 07:03:59;;;;;;;9.00;3.53;;;8.00;86.10;;;;;;5004499;28;20429;-77
2022/04/19 07:06:25;;;;;;;8.15;4.03;;;8.20;84.90;;;;;;5004545;28;20048;-75
2022/04/19 07:08:50;;;;;;;7.38;4.00;;;8.20;83.60;;;;;;5011197;28;20076;-87
2022/04/19 07:11:16;;;;;;;7.10;3.63;;;8.30;80.40;;;;;;4998848;28;20481;-79
2022/04/19 07:13:43;;;;;;;6.72;4.10;;;8.40;79.50;;;;;;5002058;28;20111;-81
2022/04/19 07:16:08;;;;;;;7.60;3.83;;;8.30;80.00;;;;;;5002930;28;20025;-82
2022/04/19 07:18:34;;;;;;;5.10;3.47;;;8.40;81.50;;;;;;4999245;28;20022;-81
2022/04/19 07:26:47;;;;;;;6.05;3.33;;;8.80;79.40;;;;;;5012735;28;20033;-78
2022/04/19 07:29:15;;;;;;;6.43;3.45;;;9.00;78.00;;;;;;5006517;28;20141;-77
2022/04/19 07:31:42;;;;;;;5.97;3.30;;;9.00;76.70;;;;;;5009472;28;20072;-77
2022/04/19 07:34:07;;;;;;;5.47;3.20;;;9.10;74.70;;;;;;5001568;28;20116;-77
2022/04/19 07:36:35;;;;;;;5.57;3.28;;;9.20;75.70;;;;;;5009401;28;20117;-78
2022/04/19 07:39:03;;;;;;;7.00;3.50;;;9.30;73.20;;;;;;5029011;28;20028;-77
2022/04/19 07:41:29;;;;;;;5.63;2.85;;;9.40;73.60;;;;;;5017490;28;20037;-77
2022/04/19 07:43:55;;;;;;;3.83;2.58;;;9.50;71.90;;;;;;5010139;28;20033;-77
2022/04/19 07:46:20;;;;;;;7.22;2.63;;;9.60;70.30;;;;;;5009970;28;20417;-78
2022/04/19 07:48:47;;;;;;;4.25;2.88;;;9.60;68.50;;;;;;5010425;28;20060;-77
2022/04/19 07:51:14;;;;;;;4.13;2.25;;;9.70;69.80;;;;;;5012523;28;20026;-77
2022/04/19 07:53:40;;;;;;;3.30;2.20;;;9.80;68.50;;;;;;5009897;28;20052;-77
2022/04/19 07:56:06;;;;;;;4.97;2.28;;;9.90;66.70;;;;;;5009765;28;20034;-79
2022/04/19 07:58:32;;;;;;;3.95;2.10;;;9.90;65.40;;;;;;5010200;28;20445;-77
2022/04/19 08:00:57;;;;;;;4.25;2.25;;;10.00;64.40;;;;;;5010587;28;20116;-77
2022/04/19 08:03:23;;;;;;;5.70;1.92;;;10.20;65.90;;;;;;5010333;28;20024;-78
2022/04/19 08:05:48;;;;;;;5.20;2.00;;;10.20;64.70;;;;;;5009638;28;20032;-77
2022/04/19 08:08:14;;;;;;;4.93;2.22;;;10.30;63.70;;;;;;5010039;28;20457;-78
2022/04/19 08:10:39;;;;;;;9.30;1.95;;;10.30;63.70;;;;;;5009596;28;20046;-78
2022/04/19 08:13:05;;;;;;;3.13;2.30;;;10.40;65.30;;;;;;5011742;28;20033;-77
2022/04/19 08:15:31;;;;;;;7.10;2.20;;;10.50;65.20;;;;;;5009664;28;20022;-77
2022/04/19 08:17:57;;;;;;;5.07;2.28;;;10.60;66.40;;;;;;5009388;28;20041;-78
2022/04/19 08:20:23;;;;;;;3.83;2.05;;;10.70;65.40;;;;;;5009802;28;20037;-77
2022/04/19 08:22:49;;;;;;;3.47;2.03;;;10.80;64.40;;;;;;5012940;28;20029;-78
2022/04/19 08:25:14;;;;;;;3.47;2.08;;;10.80;64.50;;;;;;5009332;28;20389;-78
2022/04/19 08:27:42;;;;;;;5.57;2.25;;;10.90;62.60;;;;;;5009133;28;20111;-78
2022/04/19 08:30:09;;;;;;;3.78;2.13;;;10.90;64.50;;;;;;5009010;28;20492;-78
2022/04/19 08:32:36;;;;;;;4.82;1.80;;;11.00;63.40;;;;;;5015052;28;20029;-78
2022/04/19 08:35:05;;;;;;;2.60;1.90;;;11.10;62.50;;;;;;5028928;28;20057;-77
2022/04/19 08:37:36;;;;;;;3.35;1.95;;;11.20;61.50;;;;;;5025909;28;20029;-78
2022/04/19 08:40:06;;;;;;;3.00;2.15;;;11.40;62.60;;;;;;5008234;28;20030;-78
2022/04/19 08:42:32;;;;;;;3.37;2.07;;;11.50;63.30;;;;;;5029271;28;20091;-78
2022/04/19 08:45:01;;;;;;;2.47;2.00;;;11.60;62.70;;;;;;5028207;28;20159;-77
2022/04/19 08:47:30;;;;;;;3.53;1.88;;;11.70;62.70;;;;;;5028773;28;20095;-78
2022/04/19 08:49:56;;;;;;;4.38;2.03;;;11.80;61.40;;;;;;5010040;28;20427;-78
2022/04/19 08:52:21;;;;;;;4.78;2.42;;;11.90;61.40;;;;;;5010518;28;20033;-78
2022/04/19 08:57:33;;;;;;;3.63;1.80;;;12.00;61.00;;;;;;5010642;28;20080;-78
2022/04/19 09:00:00;;;;;;;3.13;2.15;;;12.10;60.80;;;;;;5008790;28;20022;-78
2022/04/19 09:02:28;;;;;;;2.47;1.90;;;12.10;60.40;;;;;;5020310;28;20048;-77
2022/04/19 09:05:10;;;;;;;2.50;1.80;;;12.20;59.70;;;;;;5028791;28;20025;-79
2022/04/19 09:07:37;;;;;;;5.55;1.80;;;12.30;60.50;;;;;;5014146;28;20030;-77
2022/04/19 09:10:03;;;;;;;4.25;1.67;;;12.40;59.80;;;;;;5008924;28;20421;-78
2022/04/19 09:12:29;;;;;;;3.13;1.55;;;12.60;59.90;;;;;;5021838;28;20072;-78
2022/04/19 09:15:00;;;;;;;5.57;1.80;;;12.50;58.70;;;;;;5022871;28;20057;-77
2022/04/19 09:17:40;;;;;;;3.25;1.50;;;12.50;59.90;;;;;;5008472;28;20026;-78
2022/04/19 09:20:15;;;;;;;3.15;1.58;;;12.60;57.80;;;;;;5008960;28;20042;-78
2022/04/19 09:22:42;;;;;;;4.63;1.40;;;12.70;58.60;;;;;;5009975;28;20018;-78
2022/04/19 09:25:18;;;;;;;2.55;1.42;;;12.80;57.90;;;;;;5008726;28;20603;-78
2022/04/19 09:27:48;;;;;;;3.40;1.50;;;12.90;57.70;;;;;;5008255;28;20026;-78
2022/04/19 09:30:31;;;;;;;2.17;1.40;;;12.90;58.10;;;;;;5008811;28;20056;-78
2022/04/19 09:33:14;;;;;;;1.90;1.35;;;13.00;58.50;;;;;;5016424;28;20025;-77
2022/04/19 09:35:47;;;;;;;1.48;1.27;;;13.00;57.30;;;;;;5012517;28;20034;-78
2022/04/19 09:38:13;;;;;;;2.58;1.30;;;13.10;56.90;;;;;;5008516;28;20124;-77
2022/04/19 09:40:39;;;;;;;2.63;1.17;;;13.10;57.40;;;;;;5010429;28;20026;-78
2022/04/19 09:43:21;;;;;;;1.58;1.20;;;13.10;56.60;;;;;;5012976;28;20025;-78
2022/04/19 09:45:55;;;;;;;1.90;1.17;;;13.30;57.30;;;;;;5011225;28;20030;-78
2022/04/19 09:48:29;;;;;;;4.30;1.70;;;13.30;56.00;;;;;;5011888;28;20036;-79
2022/04/19 09:51:04;;;;;;;3.72;1.08;;;13.40;55.20;;;;;;5012196;28;20022;-78
2022/04/19 09:53:50;;;;;;;8.85;1.20;;;13.60;56.20;;;;;;5013472;28;20018;-78
2022/04/19 09:56:18;;;;;;;7.30;1.70;;;13.80;55.40;;;;;;5011927;28;20840;-78
2022/04/19 09:58:48;;;;;;;2.42;1.27;;;13.90;54.90;;;;;;5013780;28;20025;-78
2022/04/19 10:09:31;;;;;;;1.85;1.20;;;14.40;53.40;;;;;;5013515;28;20121;-79
2022/04/19 10:12:01;;;;;;;8.80;1.30;;;14.60;54.80;;;;;;5009954;28;20018;-79
2022/04/19 10:14:29;;;;;;;2.80;1.30;;;15.10;56.60;;;;;;5012090;28;20049;-78
2022/04/19 10:16:57;;;;;;;1.77;1.15;;;15.30;52.00;;;;;;5012659;28;20412;-78
2022/04/19 10:19:27;;;;;;;2.70;1.17;;;15.40;51.70;;;;;;5025621;28;20601;-78
2022/04/19 10:21:54;;;;;;;1.50;1.30;;;15.50;49.60;;;;;;5014975;28;20034;-78
2022/04/19 10:24:20;;;;;;;2.17;1.15;;;15.50;51.40;;;;;;5004296;28;20029;-78
2022/04/19 10:26:51;;;;;;;2.15;1.35;;;15.80;51.70;;;;;;5011059;28;20402;-80
2022/04/19 10:29:25;;;;;;;4.43;1.23;;;15.60;50.90;;;;;;5012048;28;20088;-84
2022/04/19 10:31:58;;;;;;;4.70;1.20;;;15.50;50.40;;;;;;5011043;28;20030;-78
2022/04/19 10:34:26;;;;;;;3.88;1.10;;;15.30;50.10;;;;;;5012289;28;20105;-85
2022/04/19 10:36:57;;;;;;;2.65;1.42;;;15.30;49.60;;;;;;5012852;28;20298;-82
2022/04/19 10:39:24;;;;;;;3.78;1.15;;;15.50;52.00;;;;;;5010862;28;20033;-82
2022/04/19 10:42:03;;;;;;;2.60;1.30;;;15.90;51.00;;;;;;5013677;28;20109;-80
2022/04/19 10:44:31;;;;;;;3.90;1.13;;;16.30;50.20;;;;;;5010170;28;20030;-84
2022/04/19 10:47:14;;;;;;;2.28;1.25;;;16.90;50.20;;;;;;5001954;28;20030;-85
2022/04/19 10:49:58;;;;;;;2.22;1.08;;;17.70;48.60;;;;;;5006375;28;20022;-81
2022/04/19 10:52:44;;;;;;;5.88;1.40;;;18.10;47.20;;;;;;5011773;28;20037;-81
2022/04/19 10:55:23;;;;;;;2.00;1.30;;;17.90;46.30;;;;;;5010113;28;20040;-80
2022/04/19 10:58:06;;;;;;;1.38;1.20;;;17.90;47.50;;;;;;5009773;28;20033;-88
2022/04/19 11:00:34;;;;;;;2.50;1.15;;;18.20;46.50;;;;;;5006255;28;20029;-87
2022/04/19 11:03:01;;;;;;;4.20;1.08;;;17.70;45.10;;;;;;5012163;28;20025;-84
2022/04/19 11:05:45;;;;;;;3.50;1.45;;;17.20;46.80;;;;;;5011560;28;20026;-79
2022/04/19 11:08:26;;;;;;;3.15;1.30;;;17.40;48.00;;;;;;5000879;28;20485;-82
2022/04/19 11:10:58;;;;;;;2.80;1.30;;;17.30;45.70;;;;;;5016482;28;20049;-81
2022/04/19 11:13:50;;;;;;;3.50;1.23;;;17.70;46.70;;;;;;5008417;28;20033;-79
2022/04/19 11:16:16;;;;;;;1.25;1.08;;;18.00;46.50;;;;;;5007789;28;20033;-78
2022/04/19 11:18:41;;;;;;;4.28;1.38;;;17.50;44.30;;;;;;5007877;28;20033;-78
2022/04/19 11:21:11;;;;;;;3.85;1.15;;;16.50;46.80;;;;;;5010836;28;20037;-79
2022/04/19 11:23:50;;;;;;;3.08;1.55;;;16.00;48.00;;;;;;5007630;28;20026;-79
2022/04/19 11:26:30;;;;;;;3.05;1.08;;;15.60;48.80;;;;;;5015062;28;20045;-79
2022/04/19 11:29:16;;;;;;;1.92;1.40;;;15.30;48.90;;;;;;5011206;28;20804;-81
2022/04/19 11:31:44;;;;;;;4.47;1.77;;;15.30;49.20;;;;;;5008070;28;20080;-83
2022/04/19 11:34:14;;;;;;;4.45;1.38;;;15.20;49.80;;;;;;5007488;28;20022;-80
2022/04/19 11:36:39;;;;;;;2.08;1.33;;;15.30;49.40;;;;;;5010378;28;20117;-84
2022/04/19 11:39:05;;;;;;;2.47;1.40;;;15.20;50.10;;;;;;5016113;28;20108;-85
2022/04/19 11:47:02;;;;;;;2.88;1.30;;;17.00;48.10;;;;;;5019400;28;20029;-85
2022/04/19 11:49:29;;;;;;;3.45;1.52;;;17.50;46.10;;;;;;5002304;28;20026;-84
2022/04/19 11:51:59;;;;;;;4.45;1.48;;;17.50;46.80;;;;;;5009462;28;20052;-84
2022/04/19 11:54:35;;;;;;;4.00;1.33;;;18.40;45.60;;;;;;5014101;28;20045;-84
2022/04/19 11:57:09;;;;;;;2.97;1.33;;;18.80;45.30;;;;;;5007524;28;20124;-85
2022/04/19 11:59:37;;;;;;;2.08;1.40;;;19.60;43.80;;;;;;5006579;28;20112;-86
2022/04/19 12:02:11;;;;;;;7.13;1.42;;;19.40;42.70;;;;;;5002803;28;20079;-86
2022/04/19 12:04:36;;;;;;;3.78;1.55;;;18.90;44.30;;;;;;5007566;28;20054;-82
2022/04/19 12:07:02;;;;;;;4.03;1.42;;;18.60;45.20;;;;;;5005170;28;20108;-81
2022/04/19 12:09:30;;;;;;;3.13;1.23;;;18.50;45.10;;;;;;5009157;28;20030;-82
2022/04/19 12:11:56;;;;;;;2.15;1.40;;;19.10;44.70;;;;;;5009581;28;20116;-84
2022/04/19 12:14:32;;;;;;;2.67;1.60;;;19.60;44.20;;;;;;5022143;28;20018;-83
2022/04/19 12:16:59;;;;;;;1.88;1.67;;;19.30;43.40;;;;;;5007511;28;20033;-84
2022/04/19 12:19:59;;;;;;;5.32;1.80;;;18.60;44.20;;;;;;5010047;28;20477;-84
2022/04/19 12:22:25;;;;;;;3.00;1.75;;;18.00;45.40;;;;;;5005698;28;20499;-83
2022/04/19 12:24:53;;;;;;;3.05;1.38;;;17.40;47.10;;;;;;5002482;28;20018;-82
2022/04/19 12:27:27;;;;;;;2.58;1.60;;;17.30;46.60;;;;;;5006884;28;20056;-82
2022/04/19 12:30:09;;;;;;;3.08;1.70;;;17.80;48.00;;;;;;5008717;28;20038;-83
2022/04/19 12:32:54;;;;;;;;;;;17.90;46.20;;;;;;5009074;28;20080;-84
2022/04/19 12:35:37;;;;;;;2.42;1.67;;;17.90;46.70;;;;;;5006178;28;19910;-83
2022/04/19 12:38:17;;;;;;;7.50;1.83;;;17.70;46.00;;;;;;5002192;28;20033;-84
2022/04/19 12:40:44;;;;;;;3.28;1.70;;;17.20;47.00;;;;;;5009398;28;20708;-82
2022/04/19 12:43:10;;;;;;;1.73;1.45;;;17.40;48.00;;;;;;5007037;28;20032;-82
2022/04/19 12:45:37;;;;;;;3.15;1.40;;;18.20;46.60;;;;;;5010309;28;20356;-83
2022/04/19 12:48:04;;;;;;;4.05;1.30;;;19.30;45.60;;;;;;5004611;28;20084;-82
2022/04/19 12:50:30;;;;;;;5.22;1.60;;;20.00;43.70;;;;;;5008202;28;20469;-81
2022/04/19 12:52:56;;;;;;;5.03;1.50;;;19.50;43.70;;;;;;5005678;28;20424;-82
2022/04/19 12:55:28;;;;;;;2.38;1.60;;;19.30;43.80;;;;;;5016388;28;20080;-82
2022/04/19 12:58:10;;;;;;;4.50;1.50;;;20.20;44.40;;;;;;5012139;28;20504;-82
2022/04/19 13:00:36;;;;;;;1.52;1.35;;;20.60;41.70;;;;;;5008599;28;20103;-84
2022/04/19 13:03:03;;;;;;;1.80;1.30;;;22.00;41.70;;;;;;5005641;28;20113;-85
2022/04/19 13:13:41;;;;;;;4.07;1.50;;;21.80;40.30;;;;;;5015169;28;20037;-85
2022/04/19 13:16:07;;;;;;;3.40;1.23;;;24.30;38.80;;;;;;5010029;28;20038;-83
2022/04/19 13:18:33;;;;;;;2.08;1.30;;;23.80;37.70;;;;;;5006687;28;20034;-86
2022/04/19 13:20:59;;;;;;;2.95;1.33;;;25.00;35.90;;;;;;5001366;28;20084;-82
2022/04/19 13:23:24;;;;;;;1.75;1.33;;;24.30;35.80;;;;;;5000740;28;20018;-83
2022/04/19 13:25:50;;;;;;;4.43;1.70;;;23.30;36.00;;;;;;5004114;28;20022;-83
2022/04/19 13:28:15;;;;;;;3.35;1.27;;;21.70;39.20;;;;;;5005603;28;20044;-82
2022/04/19 13:30:43;;;;;;;2.00;1.48;;;20.30;41.30;;;;;;5003654;28;20579;-83
2022/04/19 13:33:08;;;;;;;2.08;1.48;;;23.30;39.20;;;;;;5007860;28;20032;-82
2022/04/19 13:35:34;;;;;;;2.85;1.60;;;26.30;34.10;;;;;;5003233;28;20030;-84
2022/04/19 13:40:44;;;;;;;2.90;1.70;;;28.90;30.20;;;;;;5005115;28;20045;-81
2022/04/19 13:43:09;;;;;;;3.50;1.60;;;30.60;29.60;;;;;;5006223;28;20385;-79